createdAt,value
2018-09-30T00:01:36.284Z,2.77
2018-09-30T00:04:06.196Z,3.20
2018-09-30T00:06:35.782Z,2.97
2018-09-30T00:09:07.099Z,2.60
2018-09-30T00:11:36.684Z,2.80
2018-09-30T00:14:06.560Z,2.90
2018-09-30T00:16:36.114Z,2.57
2018-09-30T00:19:05.787Z,3.10
2018-09-30T00:21:35.321Z,3.07
2018-09-30T00:24:10.179Z,2.67
2018-09-30T00:26:44.748Z,3.07
2018-09-30T00:29:14.347Z,3.30
2018-09-30T00:31:43.888Z,2.33
2018-09-30T00:34:18.616Z,3.10
2018-09-30T00:36:48.503Z,2.80
2018-09-30T00:39:18.052Z,2.63
2018-09-30T00:41:47.571Z,2.70
2018-09-30T00:44:17.117Z,2.50
2018-09-30T00:46:46.672Z,2.50
2018-09-30T00:49:16.543Z,3.10
2018-09-30T00:51:46.094Z,3.10
2018-09-30T00:54:15.970Z,2.87
2018-09-30T00:56:45.502Z,2.43
2018-09-30T00:59:15.053Z,4.07
2018-09-30T01:01:44.640Z,2.70
2018-09-30T01:04:14.236Z,2.50
2018-09-30T01:06:43.767Z,2.90
2018-09-30T01:09:14.676Z,2.77
2018-09-30T01:11:44.932Z,2.70
2018-09-30T01:14:14.567Z,2.60
2018-09-30T01:16:44.683Z,2.73
2018-09-30T01:19:14.187Z,2.30
2018-09-30T01:21:43.743Z,2.40
2018-09-30T01:24:13.236Z,2.60
2018-09-30T01:26:43.095Z,2.80
2018-09-30T01:29:12.639Z,2.60
2018-09-30T01:31:42.166Z,2.60
2018-09-30T01:34:11.911Z,2.60
2018-09-30T01:36:41.635Z,3.00
2018-09-30T01:39:11.511Z,2.90
2018-09-30T01:41:41.067Z,2.70
2018-09-30T01:44:10.572Z,2.70
2018-09-30T01:46:40.183Z,3.50
2018-09-30T01:49:09.701Z,2.90
2018-09-30T01:51:39.251Z,3.00
2018-09-30T01:54:08.802Z,2.93
2018-09-30T01:56:38.328Z,2.80
2018-09-30T01:59:08.172Z,3.10
2018-09-30T02:01:37.734Z,3.07
2018-09-30T02:04:07.283Z,3.10
2018-09-30T02:06:37.014Z,2.90
2018-09-30T02:09:06.878Z,3.30
2018-09-30T02:11:36.427Z,2.77
2018-09-30T02:14:05.954Z,2.90
2018-09-30T02:16:35.459Z,2.93
2018-09-30T02:19:05.376Z,2.83
2018-09-30T02:21:34.909Z,2.50
2018-09-30T02:24:04.429Z,2.80
2018-09-30T02:26:33.946Z,2.90
2018-09-30T02:29:03.480Z,2.80
2018-09-30T02:31:33.003Z,2.87
2018-09-30T02:34:02.988Z,2.40
2018-09-30T02:36:32.527Z,3.70
2018-09-30T02:39:02.632Z,2.67
2018-09-30T02:41:32.160Z,2.70
2018-09-30T02:44:01.693Z,2.60
2018-09-30T02:46:31.487Z,2.77
2018-09-30T02:49:01.320Z,2.93
2018-09-30T02:51:30.876Z,3.00
2018-09-30T02:54:00.399Z,2.70
2018-09-30T02:56:30.113Z,3.03
2018-09-30T02:58:59.816Z,2.57
2018-09-30T03:01:29.603Z,2.85
2018-09-30T03:03:59.520Z,2.95
2018-09-30T03:06:34.471Z,3.17
2018-09-30T03:09:09.591Z,3.27
2018-09-30T03:11:39.746Z,2.83
2018-09-30T03:14:10.287Z,2.87
2018-09-30T03:16:40.251Z,3.00
2018-09-30T03:19:10.495Z,3.27
2018-09-30T03:21:40.235Z,3.40
2018-09-30T03:24:10.815Z,2.70
2018-09-30T03:26:41.280Z,3.30
2018-09-30T03:29:11.182Z,2.90
2018-09-30T03:31:47.939Z,3.10
2018-09-30T03:34:17.811Z,3.27
2018-09-30T03:36:47.368Z,3.27
2018-09-30T03:39:17.179Z,2.72
2018-09-30T03:41:46.669Z,3.20
2018-09-30T03:44:16.212Z,3.03
2018-09-30T03:46:46.239Z,3.35
2018-09-30T03:49:16.063Z,2.75
2018-09-30T03:51:45.853Z,2.72
2018-09-30T03:54:15.612Z,3.17
2018-09-30T03:56:45.382Z,2.93
2018-09-30T03:59:15.379Z,2.98
2018-09-30T04:01:45.216Z,3.10
2018-09-30T04:04:14.737Z,3.20
2018-09-30T04:06:44.509Z,2.95
2018-09-30T04:09:14.334Z,3.35
2018-09-30T04:11:44.275Z,2.50
2018-09-30T04:14:14.076Z,3.30
2018-09-30T04:16:43.886Z,3.15
2018-09-30T04:19:14.377Z,3.08
2018-09-30T04:21:44.143Z,3.45
2018-09-30T04:24:13.945Z,3.50
2018-09-30T04:26:43.919Z,3.25
2018-09-30T04:29:13.732Z,3.02
2018-09-30T04:31:43.539Z,3.25
2018-09-30T04:34:13.456Z,4.47
2018-09-30T04:36:43.568Z,3.50
2018-09-30T04:39:13.707Z,3.70
2018-09-30T04:41:43.499Z,3.52
2018-09-30T04:44:13.290Z,3.25
2018-09-30T04:46:43.094Z,3.27
2018-09-30T04:49:12.875Z,3.35
2018-09-30T04:51:42.899Z,3.35
2018-09-30T04:54:12.685Z,3.50
2018-09-30T04:56:42.788Z,3.10
2018-09-30T04:59:12.916Z,3.12
2018-09-30T05:01:42.766Z,3.45
2018-09-30T05:04:12.571Z,3.30
2018-09-30T05:06:42.688Z,3.33
2018-09-30T05:09:12.486Z,3.45
2018-09-30T05:11:42.338Z,2.92
2018-09-30T05:14:11.841Z,3.10
2018-09-30T05:16:41.695Z,3.40
2018-09-30T05:19:11.490Z,3.10
2018-09-30T05:21:41.264Z,3.20
2018-09-30T05:24:11.083Z,3.47
2018-09-30T05:26:40.905Z,3.10
2018-09-30T05:29:10.755Z,3.30
2018-09-30T05:31:40.929Z,3.10
2018-09-30T05:34:10.766Z,3.17
2018-09-30T05:36:40.923Z,3.10
2018-09-30T05:39:11.469Z,2.70
2018-09-30T05:41:41.382Z,3.10
2018-09-30T05:44:10.907Z,3.07
2018-09-30T05:46:40.895Z,3.05
2018-09-30T05:49:10.749Z,3.05
2018-09-30T05:51:40.754Z,3.50
2018-09-30T05:54:10.743Z,3.40
2018-09-30T05:56:40.556Z,3.92
2018-09-30T05:59:11.259Z,3.33
2018-09-30T06:01:41.097Z,3.40
2018-09-30T06:04:11.232Z,4.10
2018-09-30T06:06:41.156Z,3.47
2018-09-30T06:09:15.864Z,3.80
2018-09-30T06:11:47.039Z,4.20
2018-09-30T06:14:17.227Z,4.03
2018-09-30T06:16:47.099Z,3.67
2018-09-30T06:19:16.651Z,4.47
2018-09-30T06:21:46.474Z,6.65
2018-09-30T06:24:16.783Z,3.50
2018-09-30T06:26:46.469Z,3.60
2018-09-30T06:29:16.022Z,3.67
2018-09-30T06:31:45.628Z,3.40
2018-09-30T06:34:15.835Z,3.43
2018-09-30T06:36:45.348Z,3.50
2018-09-30T06:39:14.893Z,3.10
2018-09-30T06:41:44.552Z,3.87
2018-09-30T06:44:14.103Z,3.37
2018-09-30T06:46:43.843Z,3.17
2018-09-30T06:49:13.619Z,3.97
2018-09-30T06:51:43.219Z,3.17
2018-09-30T06:54:12.740Z,3.50
2018-09-30T06:56:42.375Z,4.10
2018-09-30T06:59:11.959Z,5.07
2018-09-30T07:01:41.830Z,4.47
2018-09-30T07:04:11.472Z,3.80
2018-09-30T07:06:41.026Z,3.70
2018-09-30T07:09:10.660Z,3.73
2018-09-30T07:11:40.217Z,4.17
2018-09-30T07:14:09.911Z,3.40
2018-09-30T07:16:41.182Z,31.50
2018-09-30T07:19:10.935Z,11.70
2018-09-30T07:21:40.540Z,20.30
2018-09-30T07:24:10.163Z,5.90
2018-09-30T07:26:39.721Z,4.90
2018-09-30T07:29:10.877Z,4.57
2018-09-30T07:31:40.409Z,4.70
2018-09-30T07:34:08.967Z,4.67
2018-09-30T07:36:41.495Z,4.23
2018-09-30T07:39:11.783Z,4.00
2018-09-30T07:41:41.411Z,4.90
2018-09-30T07:44:11.087Z,4.53
2018-09-30T07:46:40.706Z,5.00
2018-09-30T07:49:10.412Z,4.67
2018-09-30T07:51:40.008Z,4.60
2018-09-30T07:54:09.607Z,4.53
2018-09-30T07:56:39.166Z,3.97
2018-09-30T07:59:09.100Z,4.20
2018-09-30T08:01:38.837Z,4.50
2018-09-30T08:04:08.910Z,3.57
2018-09-30T08:06:38.552Z,3.50
2018-09-30T08:09:09.220Z,3.60
2018-09-30T08:11:39.230Z,3.27
2018-09-30T08:14:09.092Z,4.20
2018-09-30T08:16:38.729Z,4.57
2018-09-30T08:19:08.477Z,4.00
2018-09-30T08:21:38.068Z,3.63
2018-09-30T08:24:07.803Z,4.10
2018-09-30T08:26:38.148Z,4.00
2018-09-30T08:29:08.087Z,4.03
2018-09-30T08:31:37.691Z,4.10
2018-09-30T08:34:07.516Z,4.57
2018-09-30T08:36:37.089Z,4.40
2018-09-30T08:39:09.168Z,4.37
2018-09-30T08:41:38.783Z,3.93
2018-09-30T08:44:08.755Z,4.17
2018-09-30T08:46:38.607Z,4.37
2018-09-30T08:49:08.314Z,4.50
2018-09-30T08:51:38.107Z,4.87
2018-09-30T08:54:07.859Z,4.60
2018-09-30T08:56:37.452Z,4.83
2018-09-30T08:59:07.036Z,4.27
2018-09-30T09:01:36.643Z,10.53
2018-09-30T09:04:06.644Z,4.70
2018-09-30T09:06:36.287Z,4.43
2018-09-30T09:09:11.368Z,3.90
2018-09-30T09:11:41.213Z,4.97
2018-09-30T09:14:10.788Z,4.40
2018-09-30T09:16:40.358Z,4.83
2018-09-30T09:19:09.941Z,4.60
2018-09-30T09:21:39.685Z,5.20
2018-09-30T09:24:09.331Z,5.03
2018-09-30T09:26:38.887Z,4.80
2018-09-30T09:29:08.604Z,5.07
2018-09-30T09:31:38.203Z,5.37
2018-09-30T09:34:07.967Z,5.27
2018-09-30T09:36:37.565Z,5.00
2018-09-30T09:39:09.973Z,5.20
2018-09-30T09:41:39.812Z,5.57
2018-09-30T09:44:09.379Z,5.67
2018-09-30T09:46:39.043Z,4.93
2018-09-30T09:49:08.620Z,5.10
2018-09-30T09:51:38.531Z,5.40
2018-09-30T09:54:08.526Z,4.60
2018-09-30T09:56:38.215Z,4.70
2018-09-30T09:59:08.296Z,5.00
2018-09-30T10:01:38.019Z,5.37
2018-09-30T10:04:07.588Z,5.23
2018-09-30T10:06:37.285Z,4.73
2018-09-30T10:09:07.577Z,5.03
2018-09-30T10:11:37.148Z,5.33
2018-09-30T10:14:06.755Z,4.70
2018-09-30T10:16:36.300Z,5.97
2018-09-30T10:19:05.897Z,5.67
2018-09-30T10:21:39.628Z,5.50
2018-09-30T10:24:09.604Z,5.80
2018-09-30T10:26:39.259Z,5.57
2018-09-30T10:29:08.876Z,5.97
2018-09-30T10:31:38.454Z,6.10
2018-09-30T10:34:08.078Z,5.40
2018-09-30T10:36:38.054Z,6.37
2018-09-30T10:39:10.767Z,6.53
2018-09-30T10:41:41.135Z,5.87
2018-09-30T10:44:10.789Z,7.10
2018-09-30T10:46:40.437Z,5.77
2018-09-30T10:49:10.504Z,5.70
2018-09-30T10:51:40.394Z,6.37
2018-09-30T10:54:10.075Z,6.70
2018-09-30T10:56:39.911Z,5.63
2018-09-30T10:59:09.664Z,6.67
2018-09-30T11:01:39.784Z,6.97
2018-09-30T11:04:09.684Z,6.30
2018-09-30T11:06:39.327Z,6.40
2018-09-30T11:09:09.316Z,7.20
2018-09-30T11:11:39.361Z,7.63
2018-09-30T11:14:09.567Z,7.13
2018-09-30T11:16:40.686Z,7.00
2018-09-30T11:19:10.667Z,6.37
2018-09-30T11:21:46.703Z,6.87
2018-09-30T11:24:21.418Z,7.20
2018-09-30T11:26:51.128Z,6.93
2018-09-30T11:29:21.005Z,7.90
2018-09-30T11:31:50.643Z,6.60
2018-09-30T11:34:20.755Z,7.20
2018-09-30T11:36:50.661Z,7.77
2018-09-30T11:39:20.319Z,8.17
2018-09-30T11:41:50.856Z,7.33
2018-09-30T11:44:20.519Z,7.63
2018-09-30T11:46:50.572Z,7.50
2018-09-30T11:49:20.465Z,7.70
2018-09-30T11:51:50.248Z,7.80
2018-09-30T11:54:19.834Z,7.33
2018-09-30T11:56:49.491Z,8.20
2018-09-30T11:59:19.077Z,8.23
2018-09-30T12:01:48.740Z,7.97
2018-09-30T12:04:18.291Z,8.03
2018-09-30T12:06:47.962Z,7.73
2018-09-30T12:09:22.443Z,8.33
2018-09-30T12:11:52.159Z,8.87
2018-09-30T12:14:21.824Z,8.93
2018-09-30T12:16:51.431Z,8.77
2018-09-30T12:19:21.023Z,8.03
2018-09-30T12:21:50.735Z,7.17
2018-09-30T12:24:20.317Z,8.00
2018-09-30T12:26:49.906Z,7.03
2018-09-30T12:29:19.520Z,7.10
2018-09-30T12:31:49.165Z,6.70
2018-09-30T12:34:18.866Z,6.90
2018-09-30T12:36:48.531Z,6.90
2018-09-30T12:39:18.149Z,7.97
2018-09-30T12:41:48.055Z,7.80
2018-09-30T12:44:21.586Z,7.40
2018-09-30T12:46:51.189Z,7.37
2018-09-30T12:49:20.788Z,7.30
2018-09-30T12:51:50.591Z,6.70
2018-09-30T12:54:20.207Z,5.87
2018-09-30T12:56:49.830Z,6.70
2018-09-30T12:59:19.613Z,6.57
2018-09-30T13:01:49.351Z,6.60
2018-09-30T13:04:21.011Z,6.73
2018-09-30T13:06:55.039Z,6.53
2018-09-30T13:09:24.713Z,6.17
2018-09-30T13:11:54.444Z,5.40
2018-09-30T13:14:24.042Z,6.53
2018-09-30T13:16:53.652Z,6.60
2018-09-30T13:19:23.283Z,5.57
2018-09-30T13:21:52.869Z,6.17
2018-09-30T13:24:22.535Z,6.10
2018-09-30T13:26:52.131Z,6.50
2018-09-30T13:29:21.671Z,6.97
2018-09-30T13:31:51.381Z,7.20
2018-09-30T13:34:21.011Z,6.60
2018-09-30T13:36:50.960Z,6.50
2018-09-30T13:39:22.322Z,7.50
2018-09-30T13:41:51.959Z,6.30
2018-09-30T13:44:21.549Z,6.60
2018-09-30T13:46:51.407Z,7.00
2018-09-30T13:49:20.988Z,6.03
2018-09-30T13:51:50.574Z,6.80
2018-09-30T13:54:20.159Z,7.00
2018-09-30T13:56:49.710Z,6.60
2018-09-30T13:59:19.359Z,7.40
2018-09-30T14:01:48.904Z,6.50
2018-09-30T14:04:18.490Z,6.90
2018-09-30T14:06:48.099Z,6.50
2018-09-30T14:09:18.018Z,6.47
2018-09-30T14:11:47.575Z,6.23
2018-09-30T14:14:18.284Z,7.47
2018-09-30T14:16:48.050Z,7.00
2018-09-30T14:19:17.847Z,6.70
2018-09-30T14:21:47.539Z,6.57
2018-09-30T14:24:17.084Z,7.27
2018-09-30T14:26:47.022Z,7.50
2018-09-30T14:29:16.599Z,7.00
2018-09-30T14:31:46.193Z,6.67
2018-09-30T14:34:16.184Z,7.17
2018-09-30T14:36:45.958Z,6.30
2018-09-30T14:39:15.659Z,6.03
2018-09-30T14:41:45.233Z,6.67
2018-09-30T14:44:14.909Z,7.20
2018-09-30T14:46:44.467Z,6.90
2018-09-30T14:49:14.127Z,7.77
2018-09-30T14:51:43.709Z,7.73
2018-09-30T14:54:13.597Z,6.63
2018-09-30T14:56:43.364Z,6.57
2018-09-30T14:59:13.016Z,7.13
2018-09-30T15:01:42.652Z,5.73
2018-09-30T15:04:12.313Z,6.90
2018-09-30T15:06:41.938Z,6.33
2018-09-30T15:09:12.266Z,6.90
2018-09-30T15:11:42.032Z,7.00
2018-09-30T15:14:11.655Z,6.20
2018-09-30T15:16:41.537Z,6.90
2018-09-30T15:19:11.173Z,7.10
2018-09-30T15:21:40.973Z,6.90
2018-09-30T15:24:10.639Z,6.17
2018-09-30T15:26:40.245Z,7.10
2018-09-30T15:29:09.880Z,6.90
2018-09-30T15:31:39.443Z,6.77
2018-09-30T15:34:09.309Z,6.93
2018-09-30T15:36:38.954Z,6.50
2018-09-30T15:39:11.413Z,7.03
2018-09-30T15:41:41.520Z,6.37
2018-09-30T15:44:11.936Z,7.30
2018-09-30T15:46:41.648Z,6.80
2018-09-30T15:49:11.524Z,6.30
2018-09-30T15:51:41.125Z,5.47
2018-09-30T15:54:10.720Z,6.10
2018-09-30T15:56:40.365Z,5.27
2018-09-30T15:59:10.026Z,5.33
2018-09-30T16:01:39.601Z,5.43
2018-09-30T16:04:09.460Z,5.87
2018-09-30T16:06:39.256Z,5.43
2018-09-30T16:09:09.512Z,5.87
2018-09-30T16:11:39.121Z,5.43
2018-09-30T16:14:08.743Z,5.10
2018-09-30T16:16:38.391Z,4.90
2018-09-30T16:19:09.024Z,5.10
2018-09-30T16:21:38.608Z,4.30
2018-09-30T16:24:08.361Z,5.03
2018-09-30T16:26:37.966Z,7.87
2018-09-30T16:29:07.634Z,5.60
2018-09-30T16:31:37.228Z,5.50
2018-09-30T16:34:06.903Z,5.20
2018-09-30T16:36:36.475Z,5.00
2018-09-30T16:39:12.212Z,5.30
2018-09-30T16:41:42.362Z,5.10
2018-09-30T16:44:11.989Z,8.97
2018-09-30T16:46:41.620Z,9.70
2018-09-30T16:49:11.215Z,15.60
2018-09-30T16:51:40.789Z,8.63
2018-09-30T16:54:10.337Z,6.73
2018-09-30T16:56:39.987Z,7.33
2018-09-30T16:59:09.784Z,6.43
2018-09-30T17:01:39.418Z,11.50
2018-09-30T17:04:09.204Z,9.10
2018-09-30T17:06:38.812Z,5.90
2018-09-30T17:09:08.800Z,4.83
2018-09-30T17:11:38.421Z,5.27
2018-09-30T17:14:08.365Z,5.33
2018-09-30T17:16:38.283Z,5.97
2018-09-30T17:19:07.819Z,5.43
2018-09-30T17:21:37.431Z,5.17
2018-09-30T17:24:11.110Z,5.73
2018-09-30T17:26:40.673Z,5.93
2018-09-30T17:29:10.302Z,7.10
2018-09-30T17:31:39.920Z,9.30
2018-09-30T17:34:09.560Z,11.50
2018-09-30T17:36:39.124Z,9.27
2018-09-30T17:39:10.627Z,13.20
2018-09-30T17:41:40.221Z,11.20
2018-09-30T17:44:09.884Z,8.70
2018-09-30T17:46:39.472Z,10.00
2018-09-30T17:49:09.183Z,8.23
2018-09-30T17:51:38.774Z,8.53
2018-09-30T17:54:08.398Z,7.83
2018-09-30T17:56:37.996Z,7.97
2018-09-30T17:59:07.719Z,8.70
2018-09-30T18:01:37.303Z,8.17
2018-09-30T18:04:06.959Z,8.37
2018-09-30T18:06:36.762Z,10.23
2018-09-30T18:09:10.030Z,9.10
2018-09-30T18:11:39.665Z,9.57
2018-09-30T18:14:09.322Z,7.90
2018-09-30T18:16:46.626Z,12.07
2018-09-30T18:19:16.988Z,7.70
2018-09-30T18:21:46.626Z,8.73
2018-09-30T18:24:16.318Z,8.33
2018-09-30T18:26:46.294Z,7.80
2018-09-30T18:29:16.241Z,7.50
2018-09-30T18:31:46.213Z,8.33
2018-09-30T18:34:16.224Z,8.30
2018-09-30T18:36:46.008Z,8.17
2018-09-30T18:39:16.017Z,8.20
2018-09-30T18:41:45.684Z,8.23
2018-09-30T18:44:15.399Z,8.77
2018-09-30T18:46:45.290Z,8.60
2018-09-30T18:49:15.167Z,12.67
2018-09-30T18:51:45.174Z,11.10
2018-09-30T18:54:15.144Z,8.37
2018-09-30T18:56:45.104Z,8.30
2018-09-30T18:59:15.180Z,8.97
2018-09-30T19:01:45.139Z,8.77
2018-09-30T19:04:15.166Z,8.67
2018-09-30T19:06:45.141Z,9.03
2018-09-30T19:09:15.172Z,7.87
2018-09-30T19:11:45.236Z,8.50
2018-09-30T19:14:15.256Z,9.67
2018-09-30T19:16:45.178Z,10.00
2018-09-30T19:19:15.247Z,20.13
2018-09-30T19:21:45.709Z,13.73
2018-09-30T19:24:15.651Z,12.00
2018-09-30T19:26:45.238Z,10.67
2018-09-30T19:29:14.888Z,10.37
2018-09-30T19:31:44.504Z,10.20
2018-09-30T19:34:14.162Z,12.00
2018-09-30T19:36:43.785Z,23.23
2018-09-30T19:39:13.531Z,19.60
2018-09-30T19:41:43.195Z,15.00
2018-09-30T19:44:13.094Z,9.83
2018-09-30T19:46:42.716Z,9.83
2018-09-30T19:49:12.355Z,9.47
2018-09-30T19:51:42.292Z,9.07
2018-09-30T19:54:12.180Z,8.90
2018-09-30T19:56:41.921Z,9.43
2018-09-30T19:59:11.712Z,9.87
2018-09-30T20:01:41.359Z,9.30
2018-09-30T20:04:10.956Z,9.50
2018-09-30T20:06:40.532Z,10.27
2018-09-30T20:09:10.383Z,10.70
2018-09-30T20:11:40.162Z,11.57
2018-09-30T20:14:09.741Z,13.40
2018-09-30T20:16:39.351Z,11.60
2018-09-30T20:19:08.950Z,10.97
2018-09-30T20:21:38.539Z,10.60
2018-09-30T20:24:08.506Z,10.57
2018-09-30T20:26:38.133Z,11.60
2018-09-30T20:29:07.961Z,17.90
2018-09-30T20:31:37.606Z,28.40
2018-09-30T20:34:07.384Z,20.20
2018-09-30T20:36:37.230Z,11.60
2018-09-30T20:39:07.688Z,13.43
2018-09-30T20:41:37.497Z,11.13
2018-09-30T20:44:07.119Z,12.60
2018-09-30T20:46:36.672Z,11.50
2018-09-30T20:49:06.309Z,10.57
2018-09-30T20:51:35.890Z,10.77
2018-09-30T20:54:05.499Z,11.33
2018-09-30T20:56:35.046Z,17.70
2018-09-30T20:59:05.012Z,12.57
2018-09-30T21:01:34.669Z,12.20
2018-09-30T21:04:04.259Z,12.13
2018-09-30T21:06:35.996Z,12.03
2018-09-30T21:09:10.045Z,14.50
2018-09-30T21:11:39.660Z,11.60
2018-09-30T21:14:09.295Z,11.80
2018-09-30T21:16:39.200Z,11.50
2018-09-30T21:19:08.806Z,11.20
2018-09-30T21:21:38.384Z,11.33
2018-09-30T21:24:08.321Z,12.00
2018-09-30T21:26:37.896Z,12.10
2018-09-30T21:29:07.441Z,11.77
2018-09-30T21:31:37.039Z,11.17
2018-09-30T21:34:06.292Z,11.37
2018-09-30T21:36:36.132Z,11.20
2018-09-30T21:39:09.306Z,11.43
2018-09-30T21:41:39.062Z,11.73
2018-09-30T21:44:08.888Z,12.80
2018-09-30T21:46:39.043Z,12.10
2018-09-30T21:49:08.658Z,11.60
2018-09-30T21:51:38.460Z,11.87
2018-09-30T21:54:08.010Z,11.10
2018-09-30T21:56:37.582Z,11.70
2018-09-30T21:59:07.263Z,10.80
2018-09-30T22:01:36.891Z,10.60
2018-09-30T22:04:06.619Z,10.47
2018-09-30T22:06:36.188Z,10.80
2018-09-30T22:09:06.875Z,10.90
2018-09-30T22:11:36.616Z,9.53
2018-09-30T22:14:06.211Z,10.73
2018-09-30T22:16:35.786Z,10.97
2018-09-30T22:19:05.983Z,10.30
2018-09-30T22:21:35.695Z,10.90
2018-09-30T22:24:05.296Z,10.63
2018-09-30T22:26:34.852Z,10.40
2018-09-30T22:29:04.419Z,9.83
2018-09-30T22:31:34.284Z,10.10
2018-09-30T22:34:03.864Z,10.10
2018-09-30T22:36:33.522Z,9.97
2018-09-30T22:39:03.484Z,10.00
2018-09-30T22:41:33.004Z,10.10
2018-09-30T22:44:02.608Z,10.17
2018-09-30T22:46:32.140Z,10.07
2018-09-30T22:49:01.736Z,9.80
2018-09-30T22:51:31.447Z,10.30
2018-09-30T22:54:01.024Z,10.60
2018-09-30T22:56:30.555Z,10.60
2018-09-30T22:59:00.173Z,10.60
2018-09-30T23:01:29.807Z,10.83
2018-09-30T23:03:59.350Z,10.53
2018-09-30T23:06:28.867Z,10.47
2018-09-30T23:08:58.475Z,11.40
2018-09-30T23:11:28.023Z,11.20
2018-09-30T23:13:57.603Z,10.53
2018-09-30T23:16:27.131Z,9.80
2018-09-30T23:18:56.675Z,9.90
2018-09-30T23:21:26.535Z,10.27
2018-09-30T23:23:56.091Z,10.50
2018-09-30T23:26:25.647Z,9.80
2018-09-30T23:28:55.346Z,10.07
2018-09-30T23:31:24.887Z,10.20
2018-09-30T23:33:54.624Z,10.00
2018-09-30T23:36:24.214Z,10.07
2018-09-30T23:38:53.740Z,10.10
2018-09-30T23:41:23.295Z,9.50
2018-09-30T23:43:52.878Z,9.67
2018-09-30T23:46:22.668Z,10.07
2018-09-30T23:48:52.494Z,9.43
2018-09-30T23:51:22.063Z,9.27
2018-09-30T23:53:51.667Z,9.20
2018-09-30T23:56:21.223Z,9.03
2018-09-30T23:58:50.792Z,9.00
